sensor_id;sensor_type;location;lat;lon;timestamp;P1;durP1;ratioP1;P2;durP2;ratioP2
13832;SDS011;6987;19.472;-99.276;2023-12-22T00:01:24;5.00;;;4.55;;
13832;SDS011;6987;19.472;-99.276;2023-12-22T00:03:54;10.10;;;6.13;;
13832;SDS011;6987;19.472;-99.276;2023-12-22T00:06:23;12.27;;;5.90;;
13832;SDS011;6987;19.472;-99.276;2023-12-22T00:08:53;8.07;;;4.88;;
13832;SDS011;6987;19.472;-99.276;2023-12-22T00:11:22;10.43;;;4.60;;
13832;SDS011;6987;19.472;-99.276;2023-12-22T00:13:53;7.63;;;3.83;;
13832;SDS011;6987;19.472;-99.276;2023-12-22T00:16:23;4.60;;;3.67;;
13832;SDS011;6987;19.472;-99.276;2023-12-22T00:18:52;7.90;;;4.10;;
13832;SDS011;6987;19.472;-99.276;2023-12-22T00:21:23;4.10;;;3.40;;
13832;SDS011;6987;19.472;-99.276;2023-12-22T00:23:53;5.40;;;3.40;;
13832;SDS011;6987;19.472;-99.276;2023-12-22T00:26:23;11.00;;;3.25;;
13832;SDS011;6987;19.472;-99.276;2023-12-22T00:28:55;4.25;;;3.58;;
13832;SDS011;6987;19.472;-99.276;2023-12-22T00:31:24;14.93;;;4.97;;
13832;SDS011;6987;19.472;-99.276;2023-12-22T00:33:54;4.97;;;3.88;;
13832;SDS011;6987;19.472;-99.276;2023-12-22T00:36:24;15.63;;;7.75;;
13832;SDS011;6987;19.472;-99.276;2023-12-22T00:38:53;18.25;;;5.85;;
13832;SDS011;6987;19.472;-99.276;2023-12-22T00:41:23;8.65;;;4.18;;
13832;SDS011;6987;19.472;-99.276;2023-12-22T00:43:52;6.05;;;4.00;;
13832;SDS011;6987;19.472;-99.276;2023-12-22T00:46:23;8.30;;;4.40;;
13832;SDS011;6987;19.472;-99.276;2023-12-22T00:48:53;6.68;;;4.30;;
13832;SDS011;6987;19.472;-99.276;2023-12-22T00:51:23;8.93;;;4.10;;
13832;SDS011;6987;19.472;-99.276;2023-12-22T00:53:52;10.85;;;5.35;;
13832;SDS011;6987;19.472;-99.276;2023-12-22T00:56:21;10.73;;;6.50;;
13832;SDS011;6987;19.472;-99.276;2023-12-22T00:58:51;12.65;;;6.07;;
13832;SDS011;6987;19.472;-99.276;2023-12-22T01:01:22;16.05;;;8.60;;
13832;SDS011;6987;19.472;-99.276;2023-12-22T01:03:52;17.85;;;7.50;;
13832;SDS011;6987;19.472;-99.276;2023-12-22T01:06:21;20.73;;;8.88;;
13832;SDS011;6987;19.472;-99.276;2023-12-22T01:08:51;15.80;;;7.97;;
13832;SDS011;6987;19.472;-99.276;2023-12-22T01:11:21;13.02;;;8.43;;
13832;SDS011;6987;19.472;-99.276;2023-12-22T01:13:51;21.08;;;6.85;;
13832;SDS011;6987;19.472;-99.276;2023-12-22T01:16:23;19.40;;;9.60;;
13832;SDS011;6987;19.472;-99.276;2023-12-22T01:18:52;19.77;;;9.50;;
13832;SDS011;6987;19.472;-99.276;2023-12-22T01:21:21;33.85;;;12.38;;
13832;SDS011;6987;19.472;-99.276;2023-12-22T01:23:51;32.17;;;12.13;;
13832;SDS011;6987;19.472;-99.276;2023-12-22T01:26:21;25.00;;;11.10;;
13832;SDS011;6987;19.472;-99.276;2023-12-22T01:28:50;19.45;;;10.23;;
13832;SDS011;6987;19.472;-99.276;2023-12-22T01:31:20;24.55;;;10.80;;
13832;SDS011;6987;19.472;-99.276;2023-12-22T01:33:51;29.85;;;11.52;;
13832;SDS011;6987;19.472;-99.276;2023-12-22T01:36:20;25.35;;;11.45;;
13832;SDS011;6987;19.472;-99.276;2023-12-22T01:38:50;37.90;;;10.50;;
13832;SDS011;6987;19.472;-99.276;2023-12-22T01:41:20;30.02;;;11.88;;
13832;SDS011;6987;19.472;-99.276;2023-12-22T01:43:49;30.50;;;11.95;;
13832;SDS011;6987;19.472;-99.276;2023-12-22T01:46:19;35.65;;;12.52;;
13832;SDS011;6987;19.472;-99.276;2023-12-22T01:48:51;27.50;;;11.63;;
13832;SDS011;6987;19.472;-99.276;2023-12-22T01:51:21;33.72;;;10.40;;
13832;SDS011;6987;19.472;-99.276;2023-12-22T01:53:51;28.08;;;10.23;;
13832;SDS011;6987;19.472;-99.276;2023-12-22T01:56:21;29.55;;;10.07;;
13832;SDS011;6987;19.472;-99.276;2023-12-22T01:58:51;33.38;;;10.65;;
13832;SDS011;6987;19.472;-99.276;2023-12-22T02:01:27;24.58;;;9.50;;
13832;SDS011;6987;19.472;-99.276;2023-12-22T02:03:57;35.22;;;9.77;;
13832;SDS011;6987;19.472;-99.276;2023-12-22T02:06:28;34.30;;;10.52;;
13832;SDS011;6987;19.472;-99.276;2023-12-22T02:09:01;41.78;;;11.27;;
13832;SDS011;6987;19.472;-99.276;2023-12-22T02:11:32;28.95;;;9.43;;
13832;SDS011;6987;19.472;-99.276;2023-12-22T02:14:02;35.72;;;9.27;;
13832;SDS011;6987;19.472;-99.276;2023-12-22T02:16:44;31.92;;;8.90;;
13832;SDS011;6987;19.472;-99.276;2023-12-22T02:19:22;30.65;;;8.95;;
13832;SDS011;6987;19.472;-99.276;2023-12-22T02:22:08;28.17;;;7.10;;
13832;SDS011;6987;19.472;-99.276;2023-12-22T02:24:40;22.15;;;9.15;;
13832;SDS011;6987;19.472;-99.276;2023-12-22T02:27:12;22.95;;;7.60;;
13832;SDS011;6987;19.472;-99.276;2023-12-22T02:29:51;31.08;;;7.78;;
13832;SDS011;6987;19.472;-99.276;2023-12-22T02:32:30;12.30;;;6.13;;
13832;SDS011;6987;19.472;-99.276;2023-12-22T02:35:02;30.83;;;18.65;;
13832;SDS011;6987;19.472;-99.276;2023-12-22T02:37:34;22.42;;;15.05;;
13832;SDS011;6987;19.472;-99.276;2023-12-22T02:40:07;27.45;;;14.90;;
13832;SDS011;6987;19.472;-99.276;2023-12-22T02:42:37;96.93;;;64.82;;
13832;SDS011;6987;19.472;-99.276;2023-12-22T02:45:12;73.68;;;47.85;;
13832;SDS011;6987;19.472;-99.276;2023-12-22T02:47:42;32.00;;;23.02;;
13832;SDS011;6987;19.472;-99.276;2023-12-22T02:50:12;39.20;;;25.60;;
13832;SDS011;6987;19.472;-99.276;2023-12-22T02:52:43;44.30;;;28.58;;
13832;SDS011;6987;19.472;-99.276;2023-12-22T02:55:15;24.63;;;13.70;;
13832;SDS011;6987;19.472;-99.276;2023-12-22T02:57:44;25.55;;;7.93;;
13832;SDS011;6987;19.472;-99.276;2023-12-22T03:00:14;26.00;;;8.02;;
13832;SDS011;6987;19.472;-99.276;2023-12-22T03:02:44;37.03;;;7.43;;
13832;SDS011;6987;19.472;-99.276;2023-12-22T03:05:14;30.67;;;6.78;;
13832;SDS011;6987;19.472;-99.276;2023-12-22T03:07:43;21.52;;;7.38;;
13832;SDS011;6987;19.472;-99.276;2023-12-22T03:10:14;21.52;;;6.88;;
13832;SDS011;6987;19.472;-99.276;2023-12-22T03:12:44;17.05;;;6.90;;
13832;SDS011;6987;19.472;-99.276;2023-12-22T03:15:14;18.75;;;6.18;;
13832;SDS011;6987;19.472;-99.276;2023-12-22T03:17:46;26.05;;;6.78;;
13832;SDS011;6987;19.472;-99.276;2023-12-22T03:20:15;17.33;;;6.53;;
13832;SDS011;6987;19.472;-99.276;2023-12-22T03:22:45;23.73;;;6.90;;
13832;SDS011;6987;19.472;-99.276;2023-12-22T03:25:17;16.25;;;6.78;;
13832;SDS011;6987;19.472;-99.276;2023-12-22T03:27:46;16.60;;;5.78;;
13832;SDS011;6987;19.472;-99.276;2023-12-22T03:30:16;18.80;;;5.68;;
13832;SDS011;6987;19.472;-99.276;2023-12-22T03:32:46;17.45;;;6.10;;
13832;SDS011;6987;19.472;-99.276;2023-12-22T03:35:18;16.25;;;5.70;;
13832;SDS011;6987;19.472;-99.276;2023-12-22T03:37:48;31.35;;;6.93;;
13832;SDS011;6987;19.472;-99.276;2023-12-22T03:40:19;13.57;;;5.75;;
13832;SDS011;6987;19.472;-99.276;2023-12-22T03:42:48;18.85;;;6.63;;
13832;SDS011;6987;19.472;-99.276;2023-12-22T03:45:18;17.08;;;5.85;;
13832;SDS011;6987;19.472;-99.276;2023-12-22T03:47:48;14.73;;;5.72;;
13832;SDS011;6987;19.472;-99.276;2023-12-22T03:50:17;10.88;;;4.75;;
13832;SDS011;6987;19.472;-99.276;2023-12-22T03:52:47;15.00;;;5.85;;
13832;SDS011;6987;19.472;-99.276;2023-12-22T03:55:16;26.92;;;7.07;;
13832;SDS011;6987;19.472;-99.276;2023-12-22T03:57:48;12.13;;;5.47;;
13832;SDS011;6987;19.472;-99.276;2023-12-22T04:00:18;14.48;;;5.40;;
13832;SDS011;6987;19.472;-99.276;2023-12-22T04:02:47;17.05;;;4.82;;
13832;SDS011;6987;19.472;-99.276;2023-12-22T04:05:17;12.90;;;5.45;;
13832;SDS011;6987;19.472;-99.276;2023-12-22T04:07:47;18.40;;;5.50;;
13832;SDS011;6987;19.472;-99.276;2023-12-22T04:10:16;9.35;;;5.43;;
13832;SDS011;6987;19.472;-99.276;2023-12-22T04:12:47;12.52;;;5.05;;
13832;SDS011;6987;19.472;-99.276;2023-12-22T04:15:17;12.30;;;5.10;;
13832;SDS011;6987;19.472;-99.276;2023-12-22T04:17:46;10.93;;;5.22;;
13832;SDS011;6987;19.472;-99.276;2023-12-22T04:20:16;10.05;;;5.07;;
13832;SDS011;6987;19.472;-99.276;2023-12-22T04:22:46;13.32;;;5.75;;
13832;SDS011;6987;19.472;-99.276;2023-12-22T04:25:16;13.35;;;4.95;;
13832;SDS011;6987;19.472;-99.276;2023-12-22T04:27:47;11.15;;;5.20;;
13832;SDS011;6987;19.472;-99.276;2023-12-22T04:30:16;14.05;;;4.97;;
13832;SDS011;6987;19.472;-99.276;2023-12-22T04:32:46;8.43;;;5.10;;
13832;SDS011;6987;19.472;-99.276;2023-12-22T04:35:16;12.15;;;5.93;;
13832;SDS011;6987;19.472;-99.276;2023-12-22T04:37:46;8.85;;;5.68;;
13832;SDS011;6987;19.472;-99.276;2023-12-22T04:40:16;8.85;;;6.20;;
13832;SDS011;6987;19.472;-99.276;2023-12-22T04:42:47;10.85;;;5.72;;
13832;SDS011;6987;19.472;-99.276;2023-12-22T04:45:17;6.82;;;5.22;;
13832;SDS011;6987;19.472;-99.276;2023-12-22T04:47:46;9.65;;;5.65;;
13832;SDS011;6987;19.472;-99.276;2023-12-22T04:50:16;8.20;;;5.53;;
13832;SDS011;6987;19.472;-99.276;2023-12-22T04:52:46;12.82;;;5.68;;
13832;SDS011;6987;19.472;-99.276;2023-12-22T04:55:15;15.70;;;5.88;;
13832;SDS011;6987;19.472;-99.276;2023-12-22T04:57:44;9.02;;;5.82;;
13832;SDS011;6987;19.472;-99.276;2023-12-22T05:00:16;15.15;;;5.97;;
13832;SDS011;6987;19.472;-99.276;2023-12-22T05:02:46;6.82;;;5.38;;
13832;SDS011;6987;19.472;-99.276;2023-12-22T05:05:15;9.13;;;5.85;;
13832;SDS011;6987;19.472;-99.276;2023-12-22T05:07:45;10.43;;;6.10;;
13832;SDS011;6987;19.472;-99.276;2023-12-22T05:10:15;10.38;;;5.63;;
13832;SDS011;6987;19.472;-99.276;2023-12-22T05:12:45;14.60;;;6.57;;
13832;SDS011;6987;19.472;-99.276;2023-12-22T05:15:16;20.95;;;7.32;;
13832;SDS011;6987;19.472;-99.276;2023-12-22T05:17:46;17.83;;;7.20;;
13832;SDS011;6987;19.472;-99.276;2023-12-22T05:20:16;10.65;;;6.15;;
13832;SDS011;6987;19.472;-99.276;2023-12-22T05:22:45;12.75;;;6.30;;
13832;SDS011;6987;19.472;-99.276;2023-12-22T05:25:15;19.95;;;6.57;;
13832;SDS011;6987;19.472;-99.276;2023-12-22T05:27:45;16.75;;;6.68;;
13832;SDS011;6987;19.472;-99.276;2023-12-22T05:30:17;15.95;;;7.18;;
13832;SDS011;6987;19.472;-99.276;2023-12-22T05:32:46;10.20;;;6.63;;
13832;SDS011;6987;19.472;-99.276;2023-12-22T05:35:18;15.30;;;7.05;;
13832;SDS011;6987;19.472;-99.276;2023-12-22T05:37:47;17.08;;;7.22;;
13832;SDS011;6987;19.472;-99.276;2023-12-22T05:40:17;14.90;;;6.47;;
13832;SDS011;6987;19.472;-99.276;2023-12-22T05:42:48;13.15;;;6.32;;
13832;SDS011;6987;19.472;-99.276;2023-12-22T05:45:18;11.40;;;6.63;;
13832;SDS011;6987;19.472;-99.276;2023-12-22T05:47:47;12.07;;;6.70;;
13832;SDS011;6987;19.472;-99.276;2023-12-22T05:50:17;12.27;;;6.65;;
13832;SDS011;6987;19.472;-99.276;2023-12-22T05:52:46;12.55;;;6.75;;
13832;SDS011;6987;19.472;-99.276;2023-12-22T05:55:15;12.93;;;6.25;;
13832;SDS011;6987;19.472;-99.276;2023-12-22T05:57:45;11.80;;;6.78;;
13832;SDS011;6987;19.472;-99.276;2023-12-22T06:00:17;9.75;;;5.82;;
13832;SDS011;6987;19.472;-99.276;2023-12-22T06:02:46;13.15;;;6.35;;
13832;SDS011;6987;19.472;-99.276;2023-12-22T06:05:15;14.55;;;6.43;;
13832;SDS011;6987;19.472;-99.276;2023-12-22T06:07:45;10.38;;;6.05;;
13832;SDS011;6987;19.472;-99.276;2023-12-22T06:10:15;10.75;;;6.40;;
13832;SDS011;6987;19.472;-99.276;2023-12-22T06:12:45;12.32;;;5.78;;
13832;SDS011;6987;19.472;-99.276;2023-12-22T06:15:17;11.30;;;5.72;;
13832;SDS011;6987;19.472;-99.276;2023-12-22T06:17:46;12.65;;;6.28;;
13832;SDS011;6987;19.472;-99.276;2023-12-22T06:20:16;13.57;;;5.82;;
13832;SDS011;6987;19.472;-99.276;2023-12-22T06:22:45;10.50;;;5.53;;
13832;SDS011;6987;19.472;-99.276;2023-12-22T06:25:15;9.00;;;5.15;;
13832;SDS011;6987;19.472;-99.276;2023-12-22T06:27:45;10.65;;;5.30;;
13832;SDS011;6987;19.472;-99.276;2023-12-22T06:30:17;6.63;;;4.65;;
13832;SDS011;6987;19.472;-99.276;2023-12-22T06:32:46;8.45;;;4.97;;
13832;SDS011;6987;19.472;-99.276;2023-12-22T06:35:15;10.50;;;4.68;;
13832;SDS011;6987;19.472;-99.276;2023-12-22T06:37:49;10.98;;;4.60;;
13832;SDS011;6987;19.472;-99.276;2023-12-22T06:40:20;7.55;;;4.28;;
13832;SDS011;6987;19.472;-99.276;2023-12-22T06:42:49;6.20;;;4.25;;
13832;SDS011;6987;19.472;-99.276;2023-12-22T06:45:21;6.07;;;4.57;;
13832;SDS011;6987;19.472;-99.276;2023-12-22T06:47:50;8.55;;;4.07;;
13832;SDS011;6987;19.472;-99.276;2023-12-22T06:50:20;7.15;;;3.88;;
13832;SDS011;6987;19.472;-99.276;2023-12-22T06:52:50;5.60;;;4.05;;
13832;SDS011;6987;19.472;-99.276;2023-12-22T06:55:20;8.60;;;3.97;;
13832;SDS011;6987;19.472;-99.276;2023-12-22T06:57:49;4.28;;;3.95;;
13832;SDS011;6987;19.472;-99.276;2023-12-22T07:00:21;5.00;;;3.75;;
13832;SDS011;6987;19.472;-99.276;2023-12-22T07:02:51;6.47;;;3.72;;
13832;SDS011;6987;19.472;-99.276;2023-12-22T07:05:30;5.38;;;3.80;;
13832;SDS011;6987;19.472;-99.276;2023-12-22T07:08:04;4.32;;;3.85;;
13832;SDS011;6987;19.472;-99.276;2023-12-22T07:10:34;5.82;;;4.28;;
13832;SDS011;6987;19.472;-99.276;2023-12-22T07:13:04;6.65;;;3.60;;
13832;SDS011;6987;19.472;-99.276;2023-12-22T07:15:36;4.80;;;3.70;;
13832;SDS011;6987;19.472;-99.276;2023-12-22T07:18:06;8.20;;;3.38;;
13832;SDS011;6987;19.472;-99.276;2023-12-22T07:20:35;9.20;;;3.35;;
13832;SDS011;6987;19.472;-99.276;2023-12-22T07:23:05;5.45;;;3.15;;
13832;SDS011;6987;19.472;-99.276;2023-12-22T07:25:36;4.22;;;3.70;;
13832;SDS011;6987;19.472;-99.276;2023-12-22T07:28:06;5.10;;;3.25;;
13832;SDS011;6987;19.472;-99.276;2023-12-22T07:30:37;5.18;;;3.42;;
13832;SDS011;6987;19.472;-99.276;2023-12-22T07:33:07;3.55;;;3.25;;
13832;SDS011;6987;19.472;-99.276;2023-12-22T07:35:37;5.57;;;3.72;;
13832;SDS011;6987;19.472;-99.276;2023-12-22T07:38:07;3.97;;;3.05;;
13832;SDS011;6987;19.472;-99.276;2023-12-22T07:40:36;5.25;;;2.78;;
13832;SDS011;6987;19.472;-99.276;2023-12-22T07:43:06;3.75;;;2.90;;
13832;SDS011;6987;19.472;-99.276;2023-12-22T07:45:38;2.92;;;2.58;;
13832;SDS011;6987;19.472;-99.276;2023-12-22T07:48:08;4.57;;;2.72;;
13832;SDS011;6987;19.472;-99.276;2023-12-22T07:50:38;3.95;;;3.05;;
13832;SDS011;6987;19.472;-99.276;2023-12-22T07:53:08;6.60;;;2.95;;
13832;SDS011;6987;19.472;-99.276;2023-12-22T07:55:37;2.90;;;2.70;;
13832;SDS011;6987;19.472;-99.276;2023-12-22T07:58:07;4.20;;;2.88;;
13832;SDS011;6987;19.472;-99.276;2023-12-22T08:00:39;3.22;;;2.63;;
13832;SDS011;6987;19.472;-99.276;2023-12-22T08:03:09;3.50;;;2.83;;
13832;SDS011;6987;19.472;-99.276;2023-12-22T08:05:38;6.85;;;2.95;;
13832;SDS011;6987;19.472;-99.276;2023-12-22T08:08:08;5.75;;;2.72;;
13832;SDS011;6987;19.472;-99.276;2023-12-22T08:10:38;3.97;;;3.05;;
13832;SDS011;6987;19.472;-99.276;2023-12-22T08:13:07;7.63;;;3.13;;
13832;SDS011;6987;19.472;-99.276;2023-12-22T08:15:37;4.50;;;2.60;;
13832;SDS011;6987;19.472;-99.276;2023-12-22T08:18:08;8.05;;;2.83;;
13832;SDS011;6987;19.472;-99.276;2023-12-22T08:20:38;4.80;;;2.65;;
13832;SDS011;6987;19.472;-99.276;2023-12-22T08:23:13;7.28;;;2.80;;
13832;SDS011;6987;19.472;-99.276;2023-12-22T08:25:43;4.25;;;2.75;;
13832;SDS011;6987;19.472;-99.276;2023-12-22T08:28:13;2.50;;;2.30;;
13832;SDS011;6987;19.472;-99.276;2023-12-22T08:30:45;5.63;;;2.40;;
13832;SDS011;6987;19.472;-99.276;2023-12-22T08:33:15;7.30;;;2.40;;
13832;SDS011;6987;19.472;-99.276;2023-12-22T08:35:44;2.97;;;2.22;;
13832;SDS011;6987;19.472;-99.276;2023-12-22T08:38:14;4.30;;;2.30;;
13832;SDS011;6987;19.472;-99.276;2023-12-22T08:40:43;4.63;;;2.63;;
13832;SDS011;6987;19.472;-99.276;2023-12-22T08:43:12;2.72;;;2.53;;
13832;SDS011;6987;19.472;-99.276;2023-12-22T08:45:44;2.60;;;2.40;;
13832;SDS011;6987;19.472;-99.276;2023-12-22T08:48:14;3.50;;;2.05;;
13832;SDS011;6987;19.472;-99.276;2023-12-22T08:50:43;2.40;;;2.25;;
13832;SDS011;6987;19.472;-99.276;2023-12-22T08:53:13;2.72;;;2.55;;
13832;SDS011;6987;19.472;-99.276;2023-12-22T08:55:43;3.25;;;2.40;;
13832;SDS011;6987;19.472;-99.276;2023-12-22T08:58:13;2.70;;;2.15;;
13832;SDS011;6987;19.472;-99.276;2023-12-22T09:00:45;2.47;;;2.35;;
13832;SDS011;6987;19.472;-99.276;2023-12-22T09:03:14;3.95;;;2.50;;
13832;SDS011;6987;19.472;-99.276;2023-12-22T09:05:44;5.38;;;2.45;;
13832;SDS011;6987;19.472;-99.276;2023-12-22T09:08:13;4.55;;;2.70;;
13832;SDS011;6987;19.472;-99.276;2023-12-22T09:10:43;2.95;;;2.50;;
13832;SDS011;6987;19.472;-99.276;2023-12-22T09:13:13;2.55;;;2.33;;
13832;SDS011;6987;19.472;-99.276;2023-12-22T09:15:45;3.65;;;1.80;;
13832;SDS011;6987;19.472;-99.276;2023-12-22T09:18:15;2.97;;;2.78;;
13832;SDS011;6987;19.472;-99.276;2023-12-22T09:20:45;3.47;;;2.47;;
13832;SDS011;6987;19.472;-99.276;2023-12-22T09:23:14;2.58;;;2.47;;
13832;SDS011;6987;19.472;-99.276;2023-12-22T09:25:45;3.10;;;2.50;;
13832;SDS011;6987;19.472;-99.276;2023-12-22T09:28:15;2.70;;;2.50;;
13832;SDS011;6987;19.472;-99.276;2023-12-22T09:30:46;2.95;;;2.63;;
13832;SDS011;6987;19.472;-99.276;2023-12-22T09:33:16;2.55;;;2.40;;
13832;SDS011;6987;19.472;-99.276;2023-12-22T09:35:46;3.75;;;2.75;;
13832;SDS011;6987;19.472;-99.276;2023-12-22T09:38:16;4.55;;;2.67;;
13832;SDS011;6987;19.472;-99.276;2023-12-22T09:40:48;2.20;;;2.10;;
13832;SDS011;6987;19.472;-99.276;2023-12-22T09:43:17;4.22;;;2.60;;
13832;SDS011;6987;19.472;-99.276;2023-12-22T09:45:54;3.63;;;2.58;;
13832;SDS011;6987;19.472;-99.276;2023-12-22T09:48:24;8.05;;;3.00;;
13832;SDS011;6987;19.472;-99.276;2023-12-22T09:50:55;4.18;;;2.90;;
13832;SDS011;6987;19.472;-99.276;2023-12-22T09:53:27;2.78;;;2.58;;
13832;SDS011;6987;19.472;-99.276;2023-12-22T09:55:59;4.22;;;2.85;;
13832;SDS011;6987;19.472;-99.276;2023-12-22T09:58:30;5.95;;;3.05;;
13832;SDS011;6987;19.472;-99.276;2023-12-22T10:01:04;3.33;;;3.03;;
13832;SDS011;6987;19.472;-99.276;2023-12-22T10:03:34;3.10;;;2.90;;
13832;SDS011;6987;19.472;-99.276;2023-12-22T10:06:05;2.53;;;2.33;;
13832;SDS011;6987;19.472;-99.276;2023-12-22T10:08:38;3.92;;;2.70;;
13832;SDS011;6987;19.472;-99.276;2023-12-22T10:11:08;6.45;;;3.15;;
13832;SDS011;6987;19.472;-99.276;2023-12-22T10:13:39;7.85;;;2.88;;
13832;SDS011;6987;19.472;-99.276;2023-12-22T10:16:12;5.28;;;3.30;;
13832;SDS011;6987;19.472;-99.276;2023-12-22T10:18:42;5.93;;;3.38;;
13832;SDS011;6987;19.472;-99.276;2023-12-22T10:21:11;5.68;;;3.10;;
13832;SDS011;6987;19.472;-99.276;2023-12-22T10:23:41;3.22;;;2.78;;
13832;SDS011;6987;19.472;-99.276;2023-12-22T10:26:11;3.67;;;3.38;;
13832;SDS011;6987;19.472;-99.276;2023-12-22T10:28:42;3.80;;;3.22;;
13832;SDS011;6987;19.472;-99.276;2023-12-22T10:31:14;3.30;;;3.00;;
13832;SDS011;6987;19.472;-99.276;2023-12-22T10:33:43;7.30;;;3.35;;
13832;SDS011;6987;19.472;-99.276;2023-12-22T10:36:13;4.15;;;3.08;;
13832;SDS011;6987;19.472;-99.276;2023-12-22T10:38:42;9.30;;;3.47;;
13832;SDS011;6987;19.472;-99.276;2023-12-22T10:41:12;4.80;;;3.50;;
13832;SDS011;6987;19.472;-99.276;2023-12-22T10:43:41;5.97;;;3.55;;
13832;SDS011;6987;19.472;-99.276;2023-12-22T10:46:13;6.63;;;3.72;;
13832;SDS011;6987;19.472;-99.276;2023-12-22T10:48:43;6.68;;;3.75;;
13832;SDS011;6987;19.472;-99.276;2023-12-22T10:51:14;8.38;;;3.75;;
13832;SDS011;6987;19.472;-99.276;2023-12-22T10:53:44;3.38;;;3.03;;
13832;SDS011;6987;19.472;-99.276;2023-12-22T10:56:13;10.25;;;4.07;;
13832;SDS011;6987;19.472;-99.276;2023-12-22T10:58:44;4.20;;;3.80;;
13832;SDS011;6987;19.472;-99.276;2023-12-22T11:01:16;8.05;;;3.88;;
13832;SDS011;6987;19.472;-99.276;2023-12-22T11:03:50;4.72;;;3.83;;
13832;SDS011;6987;19.472;-99.276;2023-12-22T11:06:20;4.30;;;3.92;;
13832;SDS011;6987;19.472;-99.276;2023-12-22T11:08:53;5.15;;;4.05;;
13832;SDS011;6987;19.472;-99.276;2023-12-22T11:11:26;6.82;;;4.00;;
13832;SDS011;6987;19.472;-99.276;2023-12-22T11:13:59;7.43;;;4.30;;
13832;SDS011;6987;19.472;-99.276;2023-12-22T11:16:32;9.98;;;3.85;;
13832;SDS011;6987;19.472;-99.276;2023-12-22T11:19:02;7.63;;;3.80;;
13832;SDS011;6987;19.472;-99.276;2023-12-22T11:21:32;3.95;;;3.65;;
13832;SDS011;6987;19.472;-99.276;2023-12-22T11:24:04;7.63;;;4.50;;
13832;SDS011;6987;19.472;-99.276;2023-12-22T11:26:35;7.72;;;4.70;;
13832;SDS011;6987;19.472;-99.276;2023-12-22T11:29:06;5.18;;;4.45;;
13832;SDS011;6987;19.472;-99.276;2023-12-22T11:31:39;5.10;;;4.20;;
13832;SDS011;6987;19.472;-99.276;2023-12-22T11:34:09;6.15;;;4.60;;
13832;SDS011;6987;19.472;-99.276;2023-12-22T11:36:39;6.20;;;4.22;;
13832;SDS011;6987;19.472;-99.276;2023-12-22T11:39:11;7.82;;;4.20;;
13832;SDS011;6987;19.472;-99.276;2023-12-22T11:41:41;9.98;;;4.63;;
13832;SDS011;6987;19.472;-99.276;2023-12-22T11:44:12;7.78;;;4.18;;
13832;SDS011;6987;19.472;-99.276;2023-12-22T11:46:44;6.25;;;3.92;;
13832;SDS011;6987;19.472;-99.276;2023-12-22T11:49:14;7.63;;;4.15;;
13832;SDS011;6987;19.472;-99.276;2023-12-22T11:51:44;7.82;;;4.88;;
13832;SDS011;6987;19.472;-99.276;2023-12-22T12:00:07;7.28;;;4.68;;
13832;SDS011;6987;19.472;-99.276;2023-12-22T12:02:40;12.82;;;5.20;;
13832;SDS011;6987;19.472;-99.276;2023-12-22T12:05:09;5.72;;;4.68;;
13832;SDS011;6987;19.472;-99.276;2023-12-22T12:07:42;6.93;;;4.80;;
13832;SDS011;6987;19.472;-99.276;2023-12-22T12:10:13;6.32;;;4.68;;
13832;SDS011;6987;19.472;-99.276;2023-12-22T12:13:07;8.88;;;4.70;;
13832;SDS011;6987;19.472;-99.276;2023-12-22T12:15:37;7.43;;;5.10;;
13832;SDS011;6987;19.472;-99.276;2023-12-22T12:18:09;11.57;;;5.00;;
13832;SDS011;6987;19.472;-99.276;2023-12-22T12:20:39;11.38;;;4.93;;
13832;SDS011;6987;19.472;-99.276;2023-12-22T12:23:09;7.82;;;4.82;;
13832;SDS011;6987;19.472;-99.276;2023-12-22T12:25:38;9.63;;;5.00;;
13832;SDS011;6987;19.472;-99.276;2023-12-22T12:28:09;12.65;;;5.35;;
13832;SDS011;6987;19.472;-99.276;2023-12-22T12:30:39;7.30;;;4.78;;
13832;SDS011;6987;19.472;-99.276;2023-12-22T12:33:13;7.57;;;5.80;;
13832;SDS011;6987;19.472;-99.276;2023-12-22T12:35:43;11.13;;;5.75;;
13832;SDS011;6987;19.472;-99.276;2023-12-22T12:38:15;9.03;;;5.13;;
13832;SDS011;6987;19.472;-99.276;2023-12-22T12:40:49;15.73;;;5.75;;
13832;SDS011;6987;19.472;-99.276;2023-12-22T12:43:20;8.73;;;6.13;;
13832;SDS011;6987;19.472;-99.276;2023-12-22T12:45:50;15.95;;;6.07;;
13832;SDS011;6987;19.472;-99.276;2023-12-22T12:48:22;10.85;;;5.75;;
13832;SDS011;6987;19.472;-99.276;2023-12-22T12:50:52;14.97;;;5.30;;
13832;SDS011;6987;19.472;-99.276;2023-12-22T12:53:22;9.70;;;5.73;;
13832;SDS011;6987;19.472;-99.276;2023-12-22T12:55:55;12.88;;;5.60;;
13832;SDS011;6987;19.472;-99.276;2023-12-22T12:58:27;11.15;;;5.53;;
13832;SDS011;6987;19.472;-99.276;2023-12-22T13:01:04;12.98;;;6.05;;
13832;SDS011;6987;19.472;-99.276;2023-12-22T13:06:32;16.13;;;6.20;;
13832;SDS011;6987;19.472;-99.276;2023-12-22T13:09:02;14.43;;;5.97;;
13832;SDS011;6987;19.472;-99.276;2023-12-22T13:11:31;10.37;;;5.83;;
13832;SDS011;6987;19.472;-99.276;2023-12-22T13:14:02;9.93;;;5.53;;
13832;SDS011;6987;19.472;-99.276;2023-12-22T13:16:33;12.17;;;6.57;;
13832;SDS011;6987;19.472;-99.276;2023-12-22T13:19:05;22.30;;;7.23;;
13832;SDS011;6987;19.472;-99.276;2023-12-22T13:21:35;22.97;;;7.67;;
13832;SDS011;6987;19.472;-99.276;2023-12-22T13:24:08;24.67;;;6.90;;
13832;SDS011;6987;19.472;-99.276;2023-12-22T13:26:39;17.93;;;6.63;;
13832;SDS011;6987;19.472;-99.276;2023-12-22T13:29:09;17.77;;;7.03;;
13832;SDS011;6987;19.472;-99.276;2023-12-22T13:31:40;25.73;;;6.60;;
13832;SDS011;6987;19.472;-99.276;2023-12-22T13:34:13;13.85;;;6.18;;
13832;SDS011;6987;19.472;-99.276;2023-12-22T13:36:43;22.83;;;6.13;;
13832;SDS011;6987;19.472;-99.276;2023-12-22T13:39:13;20.90;;;7.03;;
13832;SDS011;6987;19.472;-99.276;2023-12-22T13:41:43;22.38;;;7.38;;
13832;SDS011;6987;19.472;-99.276;2023-12-22T13:44:12;19.85;;;7.47;;
13832;SDS011;6987;19.472;-99.276;2023-12-22T13:46:42;14.73;;;6.88;;
13832;SDS011;6987;19.472;-99.276;2023-12-22T13:49:14;16.67;;;7.03;;
13832;SDS011;6987;19.472;-99.276;2023-12-22T13:51:44;13.60;;;7.38;;
13832;SDS011;6987;19.472;-99.276;2023-12-22T13:54:14;17.50;;;6.83;;
13832;SDS011;6987;19.472;-99.276;2023-12-22T13:56:44;14.73;;;6.20;;
13832;SDS011;6987;19.472;-99.276;2023-12-22T13:59:15;22.53;;;7.10;;
13832;SDS011;6987;19.472;-99.276;2023-12-22T14:01:45;16.10;;;6.68;;
13832;SDS011;6987;19.472;-99.276;2023-12-22T14:04:15;23.73;;;7.43;;
13832;SDS011;6987;19.472;-99.276;2023-12-22T14:06:44;20.77;;;6.80;;
13832;SDS011;6987;19.472;-99.276;2023-12-22T14:09:14;22.67;;;6.93;;
13832;SDS011;6987;19.472;-99.276;2023-12-22T14:11:49;20.88;;;7.30;;
13832;SDS011;6987;19.472;-99.276;2023-12-22T14:14:19;13.93;;;6.97;;
13832;SDS011;6987;19.472;-99.276;2023-12-22T14:16:49;16.73;;;6.93;;
13832;SDS011;6987;19.472;-99.276;2023-12-22T14:19:20;22.47;;;6.40;;
13832;SDS011;6987;19.472;-99.276;2023-12-22T14:21:49;17.52;;;7.60;;
13832;SDS011;6987;19.472;-99.276;2023-12-22T14:24:18;22.73;;;7.55;;
13832;SDS011;6987;19.472;-99.276;2023-12-22T14:26:54;23.35;;;7.10;;
13832;SDS011;6987;19.472;-99.276;2023-12-22T14:29:23;14.20;;;7.50;;
13832;SDS011;6987;19.472;-99.276;2023-12-22T14:31:53;20.95;;;6.57;;
13832;SDS011;6987;19.472;-99.276;2023-12-22T14:34:24;15.77;;;7.10;;
13832;SDS011;6987;19.472;-99.276;2023-12-22T14:36:53;18.10;;;6.63;;
13832;SDS011;6987;19.472;-99.276;2023-12-22T14:39:23;22.25;;;7.65;;
13832;SDS011;6987;19.472;-99.276;2023-12-22T14:41:52;19.52;;;7.80;;
13832;SDS011;6987;19.472;-99.276;2023-12-22T14:44:22;13.25;;;7.60;;
13832;SDS011;6987;19.472;-99.276;2023-12-22T14:46:52;18.85;;;7.65;;
13832;SDS011;6987;19.472;-99.276;2023-12-22T14:49:28;19.05;;;7.57;;
13832;SDS011;6987;19.472;-99.276;2023-12-22T14:52:01;12.88;;;7.28;;
13832;SDS011;6987;19.472;-99.276;2023-12-22T14:54:30;13.75;;;7.88;;